Time;durP1;ratioP1;P1;durP2;ratioP2;P2;SDS_P1;SDS_P2;PMS_P1;PMS_P2;Temp;Humidity;BMP_temperature;BMP_pressure;BME280_temperature;BME280_humidity;BME280_pressure;Samples;Min_cycle;Max_cycle;Signal;HPM_P1;HPM_P2
2022/08/28 00:00:55;;;;;;;;;;;;;;;23.97;95.74;99120.50;5074415;28;20725;-44
2022/08/28 00:03:20;;;;;;;;;;;;;;;24.38;93.54;99117.88;5053312;28;19927;-44
2022/08/28 00:05:46;;;;;;;;;;;;;;;23.42;96.68;99121.69;5071747;28;19920;-43
2022/08/28 00:08:12;;;;;;;;;;;;;;;24.30;94.31;99118.56;5055860;28;20376;-43
2022/08/28 00:10:38;;;;;;;;;;;;;;;23.97;95.27;99127.56;5073447;28;19916;-44
2022/08/28 00:13:04;;;;;;;;;;;;;;;23.84;95.03;99127.78;5073963;28;19942;-44
2022/08/28 00:15:33;;;;;;;;;;;;;;;24.06;95.13;99125.94;5073366;28;19916;-44
2022/08/28 00:17:58;;;;;;;;;;;;;;;;;;5074375;28;19945;-45
2022/08/28 00:20:24;;;;;;;;;;;;;;;23.61;98.14;99123.63;5074152;28;19920;-44
2022/08/28 00:22:50;;;;;;;;;;;;;;;23.17;100.00;99124.56;5055476;28;20023;-43
2022/08/28 00:25:16;;;;;;;;;;;;;;;24.03;96.70;99127.03;5073584;28;20488;-44
2022/08/28 00:27:53;;;;;;;;;;;;;;;24.32;93.94;99126.31;5071199;28;19920;-44
2022/08/28 00:30:24;;;;;;;;;;;;;;;24.29;92.91;99126.56;5057835;28;20571;-44
2022/08/28 00:32:50;;;;;;;;;;;;;;;24.56;91.72;99120.72;5074112;28;19916;-44
2022/08/28 00:35:19;;;;;;;;;;;;;;;24.79;91.10;99118.69;5069604;28;19920;-44
2022/08/28 00:37:45;;;;;;;;;;;;;;;24.78;90.19;99117.84;5069826;28;20380;-44
2022/08/28 00:40:11;;;;;;;;;;;;;;;24.46;90.79;99120.69;5071429;28;19927;-44
2022/08/28 00:42:37;;;;;;;;;;;;;;;23.64;95.29;99125.97;5055298;28;20407;-44
2022/08/28 00:45:03;;;;;;;;;;;;;;;24.11;93.98;99119.31;5071769;28;19916;-44
2022/08/28 00:47:29;;;;;;;;;;;;;;;24.23;92.28;99122.69;5071933;28;20347;-44
2022/08/28 00:49:54;;;;;;;;;;;;;;;23.50;96.83;99133.22;5073572;28;19994;-44
2022/08/28 00:52:21;;;;;;;;;;;;;;;24.05;92.98;99117.22;5071412;28;19920;-44
2022/08/28 00:54:53;;;;;;;;;;;;;;;23.89;94.00;99117.69;5036573;28;20035;-44
2022/08/28 00:57:20;;;;;;;;;;;;;;;23.43;96.03;99123.34;5071905;28;19920;-44
2022/08/28 00:59:46;;;;;;;;;;;;;;;23.85;93.26;99118.09;5055104;28;19916;-44
2022/08/28 01:02:11;;;;;;;;;;;;;;;23.63;95.30;99119.88;5073851;28;19990;-43
2022/08/28 01:04:36;;;;;;;;;;;;;;;23.48;96.04;99126.44;5070580;28;19931;-44
2022/08/28 01:07:04;;;;;;;;;;;;;;;23.59;96.36;99123.72;5072273;28;19931;-44
2022/08/28 01:09:30;;;;;;;;;;;;;;;23.51;96.79;99129.63;5072733;28;19927;-43
2022/08/28 01:11:57;;;;;;;;;;;;;;;23.01;98.37;99128.53;5073816;28;19916;-44
2022/08/28 01:14:22;;;;;;;;;;;;;;;23.44;97.76;99130.28;5072353;28;19978;-44
2022/08/28 01:16:51;;;;;;;;;;;;;;;22.32;100.00;99142.75;5071141;28;20360;-43
2022/08/28 01:19:17;;;;;;;;;;;;;;;22.90;100.00;99135.50;5055609;28;20015;-44
2022/08/28 01:21:49;;;;;;;;;;;;;;;22.73;99.38;99144.72;5055747;28;19916;-44
2022/08/28 01:24:15;;;;;;;;;;;;;;;23.35;98.15;99142.38;5054544;28;19925;-43
2022/08/28 01:26:40;;;;;;;;;;;;;;;23.54;96.05;99136.44;5044588;28;20561;-43
2022/08/28 01:29:07;;;;;;;;;;;;;;;23.54;96.24;99136.44;5053847;28;19924;-44
2022/08/28 01:31:32;;;;;;;;;;;;;;;23.54;96.49;99137.28;5073816;28;19916;-43
2022/08/28 01:33:58;;;;;;;;;;;;;;;23.23;98.34;99138.16;5071116;28;19921;-43
2022/08/28 01:36:23;;;;;;;;;;;;;;;23.35;96.84;99134.50;5070740;28;19927;-44
2022/08/28 01:38:52;;;;;;;;;;;;;;;23.26;97.34;99143.97;5071279;28;19975;-44
2022/08/28 01:41:17;;;;;;;;;;;;;;;23.56;97.63;99145.00;5069809;28;20407;-43
2022/08/28 01:43:43;;;;;;;;;;;;;;;22.07;100.00;99155.09;5072525;28;19920;-43
2022/08/28 01:46:09;;;;;;;;;;;;;;;22.50;100.00;99150.97;5070486;28;19981;-44
2022/08/28 01:48:36;;;;;;;;;;;;;;;22.98;100.00;99154.06;5070661;28;19924;-44
2022/08/28 01:51:02;;;;;;;;;;;;;;;23.21;98.05;99148.78;5072450;28;19920;-44
2022/08/28 01:53:28;;;;;;;;;;;;;;;23.22;98.76;99150.44;5071209;28;19920;-44
2022/08/28 01:55:54;;;;;;;;;;;;;;;23.59;96.39;99147.41;5069540;28;19966;-44
2022/08/28 01:58:19;;;;;;;;;;;;;;;23.67;95.95;99146.75;5051471;28;19921;-44
2022/08/28 02:00:44;;;;;;;;;;;;;;;23.70;95.47;99151.75;5067909;28;19920;-44
2022/08/28 02:03:09;;;;;;;;;;;;;;;23.75;93.53;99150.44;5072615;28;19927;-44
2022/08/28 02:05:35;;;;;;;;;;;;;;;23.23;97.00;99154.72;5070962;28;20973;-43
2022/08/28 02:08:01;;;;;;;;;;;;;;;23.29;97.36;99159.50;5069528;28;19963;-43
2022/08/28 02:10:27;;;;;;;;;;;;;;;22.85;100.00;99165.69;5049493;28;19927;-44
2022/08/28 02:12:54;;;;;;;;;;;;;;;23.23;98.65;99159.16;5069577;28;19916;-44
2022/08/28 02:15:19;;;;;;;;;;;;;;;23.33;97.85;99160.06;5070405;28;19920;-44
2022/08/28 02:17:44;;;;;;;;;;;;;;;23.20;98.18;99165.50;5070713;28;19920;-43
2022/08/28 02:20:10;;;;;;;;;;;;;;;22.87;98.91;99171.66;5072889;28;20006;-44
2022/08/28 02:22:35;;;;;;;;;;;;;;;22.46;100.00;99171.34;5069934;28;20035;-44
2022/08/28 02:25:00;;;;;;;;;;;;;;;22.85;100.00;99166.50;5071936;28;20015;-44
2022/08/28 02:27:26;;;;;;;;;;;;;;;22.52;100.00;99170.88;5070541;28;19928;-44
2022/08/28 02:29:51;;;;;;;;;;;;;;;22.67;100.00;99175.88;5072109;28;19920;-44
2022/08/28 02:32:17;;;;;;;;;;;;;;;23.37;97.88;99167.56;5072220;28;19932;-43
2022/08/28 02:34:42;;;;;;;;;;;;;;;23.10;96.77;99169.81;5072521;28;19966;-43
2022/08/28 02:37:10;;;;;;;;;;;;;;;21.79;100.00;99185.22;5070409;28;20299;-44
2022/08/28 02:39:35;;;;;;;;;;;;;;;22.36;100.00;99186.16;5071315;28;19924;-43
2022/08/28 02:42:01;;;;;;;;;;;;;;;23.05;99.11;99166.75;5071676;28;19969;-44
2022/08/28 02:44:26;;;;;;;;;;;;;;;22.97;98.51;99176.06;5071745;28;19959;-43
2022/08/28 02:46:51;;;;;;;;;;;;;;;22.25;100.00;99183.53;5073099;28;19924;-44
2022/08/28 02:49:16;;;;;;;;;;;;;;;22.36;100.00;99175.66;5076252;28;19919;-43
2022/08/28 02:51:42;;;;;;;;;;;;;;;22.93;100.00;99179.88;5075559;28;20026;-43
2022/08/28 02:54:07;;;;;;;;;;;;;;;22.44;100.00;99183.78;5075990;28;20470;-44
2022/08/28 02:56:33;;;;;;;;;;;;;;;22.77;99.69;99180.28;5075745;28;21002;-43
2022/08/28 02:58:58;;;;;;;;;;;;;;;22.92;99.85;99186.09;5076200;28;20634;-44
2022/08/28 03:01:23;;;;;;;;;;;;;;;22.66;100.00;99192.59;5074024;28;20855;-43
2022/08/28 03:03:48;;;;;;;;;;;;;;;22.98;99.47;99187.38;5075423;28;20303;-44
2022/08/28 03:06:14;;;;;;;;;;;;;;;23.10;98.12;99185.59;5073388;28;20676;-43
2022/08/28 03:08:40;;;;;;;;;;;;;;;23.20;98.25;99186.53;5073836;28;20372;-43
2022/08/28 03:11:05;;;;;;;;;;;;;;;22.85;99.68;99192.78;5074446;28;19920;-44
2022/08/28 03:13:30;;;;;;;;;;;;;;;23.17;97.85;99192.00;5076078;28;19927;-43
2022/08/28 03:15:56;;;;;;;;;;;;;;;23.18;97.82;99191.91;5074571;28;20345;-43
2022/08/28 03:18:22;;;;;;;;;;;;;;;23.45;96.84;99185.34;5074023;28;19945;-43
2022/08/28 03:20:48;;;;;;;;;;;;;;;23.33;97.50;99179.31;5055651;28;20037;-44
2022/08/28 03:23:26;;;;;;;;;;;;;;;23.35;96.74;99189.69;5074976;28;19920;-43
2022/08/28 03:26:11;;;;;;;;;;;;;;;23.11;98.32;99189.91;5073875;28;19924;-43
2022/08/28 03:28:40;;;;;;;;;;;;;;;22.87;100.00;99196.13;5073806;28;19920;-43
2022/08/28 03:31:06;;;;;;;;;;;;;;;23.05;99.80;99188.59;5075630;28;19927;-44
2022/08/28 03:33:32;;;;;;;;;;;;;;;23.01;99.31;99181.06;5073534;28;19916;-44
2022/08/28 03:35:58;;;;;;;;;;;;;;;23.22;97.67;99183.75;5074099;28;20005;-44
2022/08/28 03:38:23;;;;;;;;;;;;;;;23.08;99.38;99183.09;5075285;28;20031;-44
2022/08/28 03:40:49;;;;;;;;;;;;;;;23.28;95.25;99178.84;5074826;28;19920;-44
2022/08/28 03:43:18;;;;;;;;;;;;;;;23.33;96.48;99181.09;5075345;28;19919;-44
2022/08/28 03:45:51;;;;;;;;;;;;;;;23.35;97.02;99180.00;5073563;28;19919;-44
2022/08/28 03:48:16;;;;;;;;;;;;;;;22.87;97.74;99187.41;5075972;28;19916;-44
2022/08/28 03:50:41;;;;;;;;;;;;;;;22.88;100.00;99192.56;5074127;28;19931;-43
2022/08/28 03:53:07;;;;;;;;;;;;;;;22.93;98.80;99187.75;5075475;28;19920;-44
2022/08/28 03:55:34;;;;;;;;;;;;;;;23.08;98.82;99191.00;5074629;28;20668;-43
2022/08/28 03:58:00;;;;;;;;;;;;;;;23.17;97.86;99195.50;5074889;28;19920;-43
2022/08/28 04:00:25;;;;;;;;;;;;;;;23.14;97.36;99200.16;5073964;28;19920;-43
2022/08/28 04:02:50;;;;;;;;;;;;;;;23.24;96.29;99193.22;5074100;28;20298;-44
2022/08/28 04:05:16;;;;;;;;;;;;;;;23.15;96.93;99193.97;5072483;28;19924;-43
2022/08/28 04:07:41;;;;;;;;;;;;;;;23.32;96.75;99189.94;5072953;28;19924;-43
2022/08/28 04:10:07;;;;;;;;;;;;;;;22.86;99.68;99197.09;5073239;28;19936;-43
2022/08/28 04:12:32;;;;;;;;;;;;;;;22.49;100.00;99202.63;5073246;28;19920;-44
2022/08/28 04:14:57;;;;;;;;;;;;;;;22.65;100.00;99202.25;5072689;28;19969;-43
2022/08/28 04:17:23;;;;;;;;;;;;;;;22.47;100.00;99203.69;5074193;28;19932;-43
2022/08/28 04:19:53;;;;;;;;;;;;;;;22.59;99.86;99204.53;5071927;28;19924;-44
2022/08/28 04:22:19;;;;;;;;;;;;;;;22.58;100.00;99208.09;5072963;28;19916;-43
2022/08/28 04:24:44;;;;;;;;;;;;;;;22.80;99.71;99205.44;5072594;28;19977;-43
2022/08/28 04:27:09;;;;;;;;;;;;;;;22.88;99.43;99210.09;5072353;28;20332;-43
2022/08/28 04:29:34;;;;;;;;;;;;;;;23.02;98.55;99209.03;5072928;28;20039;-43
2022/08/28 04:32:00;;;;;;;;;;;;;;;23.07;98.36;99204.25;5074077;28;20025;-44
2022/08/28 04:34:27;;;;;;;;;;;;;;;22.72;100.00;99207.88;5071809;28;19962;-43
2022/08/28 04:36:53;;;;;;;;;;;;;;;22.73;100.00;99220.03;5072461;28;20035;-43
2022/08/28 04:39:18;;;;;;;;;;;;;;;22.62;100.00;99217.41;5072307;28;20502;-44
2022/08/28 04:41:43;;;;;;;;;;;;;;;22.51;100.00;99223.47;5072661;28;19962;-43
2022/08/28 04:44:08;;;;;;;;;;;;;;;22.32;100.00;99222.28;5071821;28;19955;-45
2022/08/28 04:46:34;;;;;;;;;;;;;;;22.52;100.00;99223.38;5070690;28;19956;-43
2022/08/28 04:48:59;;;;;;;;;;;;;;;22.23;100.00;99227.41;5073244;28;20446;-43
2022/08/28 04:51:25;;;;;;;;;;;;;;;22.26;100.00;99221.91;5072994;28;20297;-43
2022/08/28 04:53:50;;;;;;;;;;;;;;;22.18;100.00;99225.13;5065852;28;19951;-43
2022/08/28 04:56:16;;;;;;;;;;;;;;;22.72;100.00;99221.00;5058529;28;20070;-43
2022/08/28 04:58:42;;;;;;;;;;;;;;;22.76;100.00;99220.63;5052576;28;19923;-43
2022/08/28 05:01:09;;;;;;;;;;;;;;;22.56;100.00;99213.47;5032395;28;19920;-44
2022/08/28 05:03:35;;;;;;;;;;;;;;;22.80;100.00;99212.50;5059283;28;19930;-44
2022/08/28 05:06:01;;;;;;;;;;;;;;;22.74;99.90;99213.84;5051049;28;19925;-44
2022/08/28 05:08:28;;;;;;;;;;;;;;;22.54;100.00;99218.00;5063034;28;19920;-43
2022/08/28 05:10:53;;;;;;;;;;;;;;;22.64;100.00;99220.75;5069691;28;19920;-43
2022/08/28 05:13:19;;;;;;;;;;;;;;;22.45;100.00;99223.97;5072836;28;19927;-43
2022/08/28 05:15:45;;;;;;;;;;;;;;;22.52;100.00;99228.63;5071187;28;20392;-43
2022/08/28 05:18:12;;;;;;;;;;;;;;;22.01;100.00;99236.91;5071229;28;20094;-43
2022/08/28 05:20:40;;;;;;;;;;;;;;;22.16;100.00;99232.25;5071667;28;19920;-43
2022/08/28 05:23:08;;;;;;;;;;;;;;;22.02;100.00;99243.81;5071473;28;19955;-43
2022/08/28 05:25:34;;;;;;;;;;;;;;;22.08;100.00;99230.25;5069039;28;19926;-43
2022/08/28 05:27:59;;;;;;;;;;;;;;;22.59;100.00;99239.47;5070338;28;19924;-44
2022/08/28 05:30:24;;;;;;;;;;;;;;;22.58;100.00;99236.97;5069873;28;19931;-43
2022/08/28 05:32:49;;;;;;;;;;;;;;;22.60;100.00;99240.31;5071320;28;19920;-44
2022/08/28 05:35:15;;;;;;;;;;;;;;;22.89;100.00;99241.47;5072024;28;19943;-43
2022/08/28 05:37:40;;;;;;;;;;;;;;;22.62;100.00;99248.91;5071772;28;19985;-44
2022/08/28 05:40:06;;;;;;;;;;;;;;;22.61;100.00;99244.63;5070436;28;19954;-43
2022/08/28 05:42:31;;;;;;;;;;;;;;;22.22;100.00;99252.00;5069980;28;19959;-43
2022/08/28 05:44:58;;;;;;;;;;;;;;;21.62;100.00;99265.16;5072027;28;19924;-43
2022/08/28 05:47:23;;;;;;;;;;;;;;;21.79;100.00;99256.03;5067764;28;19955;-43
2022/08/28 05:49:48;;;;;;;;;;;;;;;22.23;100.00;99253.66;5071939;28;20941;-43
2022/08/28 05:52:14;;;;;;;;;;;;;;;22.51;100.00;99245.34;5070532;28;19924;-43
2022/08/28 05:54:39;;;;;;;;;;;;;;;22.18;100.00;99258.38;5069771;28;19971;-43
2022/08/28 05:57:04;;;;;;;;;;;;;;;22.52;100.00;99254.88;5070778;28;20097;-43
2022/08/28 05:59:30;;;;;;;;;;;;;;;22.08;100.00;99260.88;5070366;28;19920;-43
2022/08/28 06:01:56;;;;;;;;;;;;;;;22.77;100.00;99255.59;5052768;28;19927;-43
2022/08/28 06:04:24;;;;;;;;;;;;;;;23.08;100.00;99255.81;5071767;28;19920;-43
2022/08/28 06:06:49;;;;;;;;;;;;;;;23.33;99.92;99249.41;5070732;28;20094;-43
2022/08/28 06:09:14;;;;;;;;;;;;;;;23.06;99.75;99261.19;5052677;28;20273;-43
2022/08/28 06:11:40;;;;;;;;;;;;;;;22.88;99.68;99260.84;5071044;28;19920;-44
2022/08/28 06:14:10;;;;;;;;;;;;;;;22.62;100.00;99268.09;5071668;28;20330;-43
2022/08/28 06:16:36;;;;;;;;;;;;;;;22.39;100.00;99264.63;5062622;28;19967;-43
2022/08/28 06:19:02;;;;;;;;;;;;;;;22.08;100.00;99271.38;5072629;28;20015;-43
2022/08/28 06:21:32;;;;;;;;;;;;;;;22.78;100.00;99259.88;5073225;28;20638;-43
2022/08/28 06:23:57;;;;;;;;;;;;;;;22.74;100.00;99261.09;5057094;28;20315;-44
2022/08/28 06:26:22;;;;;;;;;;;;;;;23.03;100.00;99263.22;5074427;28;19924;-43
2022/08/28 06:28:48;;;;;;;;;;;;;;;23.01;100.00;99258.09;5074694;28;20954;-43
2022/08/28 06:31:13;;;;;;;;;;;;;;;22.41;100.00;99273.22;5076393;28;19920;-44
2022/08/28 06:33:38;;;;;;;;;;;;;;;22.19;100.00;99288.91;5073885;28;20278;-44
2022/08/28 06:36:04;;;;;;;;;;;;;;;21.82;100.00;99294.28;5073481;28;19965;-44
2022/08/28 06:38:29;;;;;;;;;;;;;;;22.77;100.00;99277.41;5074385;28;20368;-44
2022/08/28 06:40:55;;;;;;;;;;;;;;;23.42;100.00;99271.50;5075907;28;19920;-44
2022/08/28 06:43:22;;;;;;;;;;;;;;;22.46;100.00;99286.81;5067285;28;20130;-44
2022/08/28 06:45:48;;;;;;;;;;;;;;;23.20;96.85;99267.16;5067464;28;20206;-43
2022/08/28 06:48:18;;;;;;;;;;;;;;;23.54;96.86;99267.88;5073832;28;19923;-44
2022/08/28 06:50:45;;;;;;;;;;;;;;;22.93;100.00;99284.94;5075823;28;19916;-43
2022/08/28 06:53:11;;;;;;;;;;;;;;;22.05;100.00;99297.81;5075151;28;19924;-44
2022/08/28 06:55:36;;;;;;;;;;;;;;;22.93;100.00;99284.94;5074131;28;19931;-43
2022/08/28 06:58:04;;;;;;;;;;;;;;;23.39;100.00;99281.28;5056190;28;19920;-44
2022/08/28 07:00:29;;;;;;;;;;;;;;;23.91;97.85;99276.22;5074454;28;19924;-43
2022/08/28 07:02:55;;;;;;;;;;;;;;;23.99;97.56;99278.22;5074596;28;19927;-44
2022/08/28 07:05:20;;;;;;;;;;;;;;;24.01;90.09;99263.13;5071550;28;19920;-44
2022/08/28 07:07:45;;;;;;;;;;;;;;;22.31;100.00;99290.66;5072873;28;19981;-44
2022/08/28 07:10:11;;;;;;;;;;;;;;;22.70;100.00;99281.47;5067668;28;19963;-44
2022/08/28 07:12:36;;;;;;;;;;;;;;;22.85;100.00;99292.56;5073936;28;19920;-44
2022/08/28 07:15:03;;;;;;;;;;;;;;;23.11;100.00;99287.94;5074249;28;19973;-44
2022/08/28 07:17:28;;;;;;;;;;;;;;;23.49;98.37;99286.66;5072996;28;19924;-45
2022/08/28 07:19:53;;;;;;;;;;;;;;;22.53;100.00;99288.06;5073970;28;19920;-44
2022/08/28 07:22:21;;;;;;;;;;;;;;;23.03;100.00;99289.50;5056233;28;19920;-44
2022/08/28 07:24:47;;;;;;;;;;;;;;;23.10;100.00;99288.88;5073769;28;20043;-44
2022/08/28 07:27:12;;;;;;;;;;;;;;;23.67;97.11;99286.09;5073949;28;20008;-44
2022/08/28 07:29:40;;;;;;;;;;;;;;;22.29;100.00;99303.03;5073581;28;19920;-45
2022/08/28 07:32:05;;;;;;;;;;;;;;;23.49;99.10;99291.06;5073300;28;20079;-44
2022/08/28 07:34:30;;;;;;;;;;;;;;;22.65;100.00;99303.78;5074862;28;19926;-44
2022/08/28 07:37:02;;;;;;;;;;;;;;;22.98;100.00;99293.28;5072266;28;19963;-45
2022/08/28 07:39:28;;;;;;;;;;;;;;;23.58;98.57;99290.31;5074022;28;19950;-44
2022/08/28 07:41:53;;;;;;;;;;;;;;;22.69;100.00;99305.22;5074043;28;19920;-45
2022/08/28 07:47:04;;;;;;;;;;;;;;;23.74;97.87;99300.41;5071603;28;20001;-43
2022/08/28 07:49:30;;;;;;;;;;;;;;;23.67;97.38;99304.50;5074476;28;20014;-44
2022/08/28 07:51:55;;;;;;;;;;;;;;;23.53;95.92;99297.75;5073236;28;19920;-44
2022/08/28 07:54:21;;;;;;;;;;;;;;;23.63;96.14;99303.09;5074360;28;20742;-44
2022/08/28 07:56:49;;;;;;;;;;;;;;;23.23;95.76;99299.25;5054274;28;19971;-43
2022/08/28 07:59:15;;;;;;;;;;;;;;;22.79;98.41;99311.44;5074477;28;19924;-44
2022/08/28 08:01:42;;;;;;;;;;;;;;;23.20;97.00;99307.41;5072030;28;19920;-44
2022/08/28 08:04:08;;;;;;;;;;;;;;;22.32;97.87;99315.91;5075579;28;19957;-44
2022/08/28 08:06:34;;;;;;;;;;;;;;;23.37;95.20;99304.22;5064956;28;19924;-44
2022/08/28 08:08:59;;;;;;;;;;;;;;;22.88;94.43;99312.53;5072368;28;20000;-44
2022/08/28 08:11:28;;;;;;;;;;;;;;;23.75;93.06;99304.75;5054308;28;19920;-44
2022/08/28 08:13:53;;;;;;;;;;;;;;;24.08;91.05;99309.00;5074538;28;20818;-44
2022/08/28 08:16:20;;;;;;;;;;;;;;;24.48;89.31;99305.72;5073484;28;20014;-44
2022/08/28 08:18:47;;;;;;;;;;;;;;;23.50;90.87;99308.53;5073742;28;20466;-44
2022/08/28 08:21:13;;;;;;;;;;;;;;;23.55;91.75;99306.34;5073728;28;20268;-44
2022/08/28 08:23:39;;;;;;;;;;;;;;;23.10;92.74;99316.94;5074388;28;19926;-44
2022/08/28 08:26:05;;;;;;;;;;;;;;;23.50;91.30;99314.59;5053588;28;19950;-45
2022/08/28 08:28:33;;;;;;;;;;;;;;;23.52;90.33;99325.00;5073204;28;19938;-44
2022/08/28 08:31:02;;;;;;;;;;;;;;;24.46;89.39;99307.59;5072164;28;19935;-44
2022/08/28 08:33:27;;;;;;;;;;;;;;;23.45;88.94;99322.03;5056861;28;20523;-44
2022/08/28 08:35:53;;;;;;;;;;;;;;;23.73;87.01;99310.09;5069835;28;19926;-44
2022/08/28 08:38:18;;;;;;;;;;;;;;;24.66;84.81;99313.00;5071270;28;19920;-44
2022/08/28 08:40:44;;;;;;;;;;;;;;;25.90;79.65;99311.81;5075060;28;20022;-44
2022/08/28 08:43:09;;;;;;;;;;;;;;;25.23;77.99;99311.59;5068560;28;19920;-44
2022/08/28 08:45:34;;;;;;;;;;;;;;;24.51;80.57;99321.22;5047856;28;20522;-44
2022/08/28 08:48:00;;;;;;;;;;;;;;;24.82;83.48;99319.44;5052650;28;19924;-45
2022/08/28 08:50:32;;;;;;;;;;;;;;;25.48;78.18;99312.03;5054887;28;19967;-45
2022/08/28 08:53:16;;;;;;;;;;;;;;;26.31;77.64;99307.19;5053747;28;19935;-45
2022/08/28 08:55:43;;;;;;;;;;;;;;;26.14;73.47;99303.44;5071717;28;20437;-44
2022/08/28 08:58:09;;;;;;;;;;;;;;;26.73;74.02;99315.59;5073816;28;19943;-44
2022/08/28 09:00:39;;;;;;;;;;;;;;;26.33;74.04;99316.63;5073769;28;20794;-44
2022/08/28 09:03:04;;;;;;;;;;;;;;;26.49;71.93;99305.47;5054316;28;19920;-44
2022/08/28 09:05:37;;;;;;;;;;;;;;;27.21;69.90;99311.91;5072828;28;20432;-45
2022/08/28 09:08:05;;;;;;;;;;;;;;;25.44;76.53;99317.56;5055430;28;19920;-44
2022/08/28 09:10:40;;;;;;;;;;;;;;;26.75;68.82;99303.03;5054706;28;19922;-45
2022/08/28 09:13:12;;;;;;;;;;;;;;;26.89;70.51;99307.84;5054067;28;19920;-45
2022/08/28 09:15:38;;;;;;;;;;;;;;;27.23;69.39;99311.72;5054342;28;20018;-44
2022/08/28 09:18:06;;;;;;;;;;;;;;;26.94;67.15;99312.69;5072242;28;19912;-45
2022/08/28 09:20:32;;;;;;;;;;;;;;;26.61;70.45;99320.19;5073028;28;19951;-45
2022/08/28 09:22:57;;;;;;;;;;;;;;;28.23;66.39;99321.28;5071842;28;20008;-45
2022/08/28 09:25:41;;;;;;;;;;;;;;;27.01;65.72;99320.88;5071345;28;20815;-45
2022/08/28 09:28:08;;;;;;;;;;;;;;;27.23;68.15;99322.31;5072895;28;20062;-45
2022/08/28 09:30:33;;;;;;;;;;;;;;;26.26;72.85;99340.13;5024842;28;20884;-45
2022/08/28 09:33:00;;;;;;;;;;;;;;;26.82;72.09;99327.06;5054480;28;19916;-45
2022/08/28 09:35:26;;;;;;;;;;;;;;;24.92;80.24;99343.19;5072447;28;19959;-45
2022/08/28 09:37:52;;;;;;;;;;;;;;;25.69;80.78;99335.66;5073103;28;20007;-45
2022/08/28 09:40:20;;;;;;;;;;;;;;;25.44;81.56;99340.47;5054723;28;19915;-45
2022/08/28 09:45:51;;;;;;;;;;;;;;;25.68;79.58;99340.09;5055070;28;19927;-46
2022/08/28 09:48:36;;;;;;;;;;;;;;;26.52;75.41;99326.28;5073051;28;19920;-45
2022/08/28 09:51:03;;;;;;;;;;;;;;;26.39;75.62;99329.25;5072977;28;19916;-45
2022/08/28 09:53:30;;;;;;;;;;;;;;;26.63;72.97;99339.38;5072640;28;19924;-45
2022/08/28 09:55:57;;;;;;;;;;;;;;;26.65;73.44;99321.56;5053445;28;19924;-46
2022/08/28 09:58:25;;;;;;;;;;;;;;;27.91;69.40;99327.97;5059608;28;19920;-45
2022/08/28 10:00:55;;;;;;;;;;;;;;;27.10;67.98;99326.13;5078143;28;19923;-45
2022/08/28 10:03:24;;;;;;;;;;;;;;;26.77;71.54;99330.13;5058680;28;20005;-45
2022/08/28 10:05:56;;;;;;;;;;;;;;;27.04;68.91;99329.34;5075101;28;20130;-46
2022/08/28 10:08:36;;;;;;;;;;;;;;;26.28;74.32;99330.25;5057921;28;19920;-46
2022/08/28 10:11:06;;;;;;;;;;;;;;;25.59;78.87;99333.00;5077575;28;20018;-45
2022/08/28 10:13:35;;;;;;;;;;;;;;;26.49;74.60;99322.13;5058753;28;19965;-45
2022/08/28 10:16:01;;;;;;;;;;;;;;;26.75;72.87;99325.97;5056170;28;19920;-45
2022/08/28 10:18:26;;;;;;;;;;;;;;;25.87;77.84;99328.75;5076115;28;19935;-45
2022/08/28 10:20:51;;;;;;;;;;;;;;;27.50;67.29;99316.97;5076626;28;19923;-45
2022/08/28 10:23:19;;;;;;;;;;;;;;;27.66;62.94;99311.00;5077558;28;20280;-45
2022/08/28 10:25:59;;;;;;;;;;;;;;;27.38;68.41;99323.47;5076230;28;19923;-45
2022/08/28 10:28:39;;;;;;;;;;;;;;;26.56;67.55;99317.16;5058230;28;19935;-46
2022/08/28 10:31:07;;;;;;;;;;;;;;;27.42;62.87;99308.16;5074456;28;20004;-45
2022/08/28 10:33:36;;;;;;;;;;;;;;;27.30;67.73;99316.28;5051177;28;19920;-45
2022/08/28 10:36:03;;;;;;;;;;;;;;;29.01;58.40;99315.09;5072021;28;19924;-46
2022/08/28 10:38:38;;;;;;;;;;;;;;;28.98;57.60;99313.63;5069104;28;19916;-46
2022/08/28 10:41:07;;;;;;;;;;;;;;;28.38;52.65;99304.84;5075645;28;20661;-46
2022/08/28 10:43:38;;;;;;;;;;;;;;;28.70;53.79;99313.00;5040398;28;19938;-46
2022/08/28 10:46:04;;;;;;;;;;;;;;;28.44;61.15;99320.94;5043224;28;19916;-45
2022/08/28 10:48:40;;;;;;;;;;;;;;;28.93;58.39;99315.09;5074054;28;19931;-46
2022/08/28 10:51:25;;;;;;;;;;;;;;;27.21;57.93;99316.34;5054713;28;19920;-46
2022/08/28 10:53:53;;;;;;;;;;;;;;;27.68;56.74;99311.69;5074130;28;20656;-46
2022/08/28 10:56:22;;;;;;;;;;;;;;;27.32;61.14;99316.13;5054082;28;20033;-48
2022/08/28 10:58:56;;;;;;;;;;;;;;;28.35;60.12;99317.41;5055019;28;20032;-48
2022/08/28 11:01:28;;;;;;;;;;;;;;;28.20;56.47;99321.59;5073574;28;20755;-48
2022/08/28 11:03:54;;;;;;;;;;;;;;;28.57;55.40;99307.28;5074045;28;19920;-46
2022/08/28 11:06:22;;;;;;;;;;;;;;;28.16;56.51;99312.28;5071756;28;19970;-47
2022/08/28 11:08:52;;;;;;;;;;;;;;;29.77;53.47;99313.38;5073851;28;19939;-46
2022/08/28 11:11:37;;;;;;;;;;;;;;;30.57;46.81;99302.03;5056003;28;20035;-46
2022/08/28 11:14:02;;;;;;;;;;;;;;;28.94;48.37;99307.00;5074383;28;19927;-47
2022/08/28 11:16:28;;;;;;;;;;;;;;;27.92;53.00;99313.78;5072579;28;20407;-48
2022/08/28 11:19:13;;;;;;;;;;;;;;;28.29;55.42;99307.44;5074193;28;19951;-47
2022/08/28 11:21:43;;;;;;;;;;;;;;;27.44;56.13;99322.06;5076123;28;20002;-49
2022/08/28 11:24:10;;;;;;;;;;;;;;;29.05;56.03;99308.50;5057481;28;19922;-46
2022/08/28 11:26:54;;;;;;;;;;;;;;;28.52;52.13;99312.25;5056246;28;19928;-47
2022/08/28 11:29:38;;;;;;;;;;;;;;;29.38;52.98;99309.47;5075341;28;20085;-46
2022/08/28 11:32:22;;;;;;;;;;;;;;;29.26;49.65;99308.09;5075862;28;19954;-46
2022/08/28 11:34:59;;;;;;;;;;;;;;;27.67;54.77;99317.16;5074849;28;19987;-47
2022/08/28 11:37:51;;;;;;;;;;;;;;;28.61;51.25;99303.34;5056551;28;20380;-47
2022/08/28 11:40:16;;;;;;;;;;;;;;;29.79;52.13;99300.78;5072001;28;19920;-47
2022/08/28 11:42:41;;;;;;;;;;;;;;;29.83;51.42;99310.03;5074961;28;19919;-48
2022/08/28 11:45:06;;;;;;;;;;;;;;;30.90;44.93;99305.41;5057010;28;19920;-48
2022/08/28 11:47:36;;;;;;;;;;;;;;;28.84;47.92;99311.56;5056351;28;19924;-48
2022/08/28 11:50:03;;;;;;;;;;;;;;;30.99;43.27;99298.25;5056531;28;20010;-46
2022/08/28 11:52:47;;;;;;;;;;;;;;;29.86;44.67;99307.06;5055131;28;19920;-47
2022/08/28 11:55:16;;;;;;;;;;;;;;;30.01;46.51;99308.03;5073908;28;19938;-47
2022/08/28 11:57:47;;;;;;;;;;;;;;;30.65;45.13;99304.66;5075146;28;19916;-47
2022/08/28 12:00:20;;;;;;;;;;;;;;;31.64;40.11;99294.41;5064437;28;20463;-46
2022/08/28 12:02:53;;;;;;;;;;;;;;;32.43;42.05;99294.88;5073025;28;19919;-49
2022/08/28 12:05:30;;;;;;;;;;;;;;;32.06;40.86;99301.88;5053183;28;20039;-46
2022/08/28 12:07:55;;;;;;;;;;;;;;;28.98;44.47;99299.53;5070792;28;19931;-47
2022/08/28 12:10:21;;;;;;;;;;;;;;;28.36;49.91;99297.03;5073471;28;19951;-47
2022/08/28 12:12:46;;;;;;;;;;;;;;;28.36;52.48;99303.16;5064189;28;19931;-48
2022/08/28 12:15:26;;;;;;;;;;;;;;;29.59;48.85;99295.72;5073742;28;19927;-47
2022/08/28 12:17:53;;;;;;;;;;;;;;;30.39;45.77;99292.44;5072102;28;20474;-47
2022/08/28 12:20:29;;;;;;;;;;;;;;;32.04;39.79;99287.09;5069597;28;19920;-50
2022/08/28 12:22:55;;;;;;;;;;;;;;;30.40;44.91;99294.09;5053698;28;20488;-49
2022/08/28 12:25:24;;;;;;;;;;;;;;;28.92;44.63;99297.50;5069909;28;19926;-47
2022/08/28 12:27:49;;;;;;;;;;;;;;;27.98;51.71;99304.38;5070122;28;21158;-46
2022/08/28 12:30:16;;;;;;;;;;;;;;;28.65;52.76;99307.34;5053622;28;19924;-47
2022/08/28 12:32:49;;;;;;;;;;;;;;;31.88;47.03;99293.34;5051773;28;20542;-46
2022/08/28 12:35:18;;;;;;;;;;;;;;;30.33;46.48;99282.47;5055173;28;19931;-47
2022/08/28 12:37:45;;;;;;;;;;;;;;;30.59;43.97;99286.75;5072688;28;19963;-47
2022/08/28 12:40:19;;;;;;;;;;;;;;;30.13;45.96;99294.44;5056211;28;20876;-47
2022/08/28 12:42:47;;;;;;;;;;;;;;;31.11;45.03;99291.53;5072777;28;19928;-48
2022/08/28 12:45:15;;;;;;;;;;;;;;;30.96;41.88;99287.97;5071143;28;19924;-46
2022/08/28 12:47:42;;;;;;;;;;;;;;;31.34;41.06;99290.72;5071897;28;20019;-48
2022/08/28 12:50:37;;;;;;;;;;;;;;;29.82;40.41;99295.13;5071214;28;19924;-47
2022/08/28 12:53:06;;;;;;;;;;;;;;;29.89;46.42;99309.38;5055654;28;19916;-48